sensor_id;sensor_type;location;lat;lon;timestamp;P1;durP1;ratioP1;P2;durP2;ratioP2
68800;SDS011;55784;50.734;7.086;2023-10-19T00:01:15;11.65;;;5.47;;
68800;SDS011;55784;50.734;7.086;2023-10-19T00:03:41;12.40;;;5.68;;
68800;SDS011;55784;50.734;7.086;2023-10-19T00:06:07;11.00;;;5.25;;
68800;SDS011;55784;50.734;7.086;2023-10-19T00:08:33;13.10;;;5.40;;
68800;SDS011;55784;50.734;7.086;2023-10-19T00:11:06;12.48;;;5.53;;
68800;SDS011;55784;50.734;7.086;2023-10-19T00:13:32;11.82;;;5.28;;
68800;SDS011;55784;50.734;7.086;2023-10-19T00:16:00;12.27;;;5.45;;
68800;SDS011;55784;50.734;7.086;2023-10-19T00:18:32;11.80;;;5.60;;
68800;SDS011;55784;50.734;7.086;2023-10-19T00:20:59;12.68;;;5.57;;
68800;SDS011;55784;50.734;7.086;2023-10-19T00:23:29;12.25;;;5.20;;
68800;SDS011;55784;50.734;7.086;2023-10-19T00:25:58;12.02;;;5.32;;
68800;SDS011;55784;50.734;7.086;2023-10-19T00:28:24;12.95;;;6.18;;
68800;SDS011;55784;50.734;7.086;2023-10-19T00:30:52;13.87;;;5.93;;
68800;SDS011;55784;50.734;7.086;2023-10-19T00:33:19;12.80;;;5.80;;
68800;SDS011;55784;50.734;7.086;2023-10-19T00:35:53;13.35;;;5.78;;
68800;SDS011;55784;50.734;7.086;2023-10-19T00:38:24;13.57;;;6.40;;
68800;SDS011;55784;50.734;7.086;2023-10-19T00:40:55;13.40;;;5.82;;
68800;SDS011;55784;50.734;7.086;2023-10-19T00:43:43;13.17;;;5.90;;
68800;SDS011;55784;50.734;7.086;2023-10-19T00:46:09;13.02;;;6.50;;
68800;SDS011;55784;50.734;7.086;2023-10-19T00:48:47;13.10;;;6.43;;
68800;SDS011;55784;50.734;7.086;2023-10-19T00:51:14;13.37;;;6.10;;
68800;SDS011;55784;50.734;7.086;2023-10-19T00:53:54;14.55;;;6.38;;
68800;SDS011;55784;50.734;7.086;2023-10-19T00:56:21;14.77;;;6.22;;
68800;SDS011;55784;50.734;7.086;2023-10-19T00:58:48;13.15;;;6.43;;
68800;SDS011;55784;50.734;7.086;2023-10-19T01:01:19;12.90;;;6.18;;
68800;SDS011;55784;50.734;7.086;2023-10-19T01:03:49;14.27;;;6.43;;
68800;SDS011;55784;50.734;7.086;2023-10-19T01:06:17;13.50;;;6.22;;
68800;SDS011;55784;50.734;7.086;2023-10-19T01:08:45;14.43;;;6.68;;
68800;SDS011;55784;50.734;7.086;2023-10-19T01:11:11;16.20;;;7.28;;
68800;SDS011;55784;50.734;7.086;2023-10-19T01:13:40;16.20;;;7.18;;
68800;SDS011;55784;50.734;7.086;2023-10-19T01:16:11;14.10;;;6.50;;
68800;SDS011;55784;50.734;7.086;2023-10-19T01:18:41;15.13;;;6.88;;
68800;SDS011;55784;50.734;7.086;2023-10-19T01:21:08;15.68;;;7.35;;
68800;SDS011;55784;50.734;7.086;2023-10-19T01:23:34;14.50;;;6.65;;
68800;SDS011;55784;50.734;7.086;2023-10-19T01:26:00;15.15;;;7.30;;
68800;SDS011;55784;50.734;7.086;2023-10-19T01:28:33;13.33;;;6.63;;
68800;SDS011;55784;50.734;7.086;2023-10-19T01:31:23;14.18;;;6.50;;
68800;SDS011;55784;50.734;7.086;2023-10-19T01:33:54;15.55;;;7.00;;
68800;SDS011;55784;50.734;7.086;2023-10-19T01:36:21;14.32;;;6.38;;
68800;SDS011;55784;50.734;7.086;2023-10-19T01:38:47;14.43;;;6.38;;
68800;SDS011;55784;50.734;7.086;2023-10-19T01:41:13;16.30;;;7.53;;
68800;SDS011;55784;50.734;7.086;2023-10-19T01:43:40;14.57;;;6.82;;
68800;SDS011;55784;50.734;7.086;2023-10-19T01:46:07;14.05;;;6.90;;
68800;SDS011;55784;50.734;7.086;2023-10-19T01:48:47;14.77;;;7.05;;
68800;SDS011;55784;50.734;7.086;2023-10-19T01:51:14;14.63;;;6.97;;
68800;SDS011;55784;50.734;7.086;2023-10-19T01:53:40;15.20;;;7.27;;
68800;SDS011;55784;50.734;7.086;2023-10-19T01:56:12;15.25;;;6.97;;
68800;SDS011;55784;50.734;7.086;2023-10-19T01:58:39;14.10;;;6.85;;
68800;SDS011;55784;50.734;7.086;2023-10-19T02:01:06;13.68;;;6.90;;
68800;SDS011;55784;50.734;7.086;2023-10-19T02:03:35;14.00;;;6.78;;
68800;SDS011;55784;50.734;7.086;2023-10-19T02:06:01;14.75;;;6.72;;
68800;SDS011;55784;50.734;7.086;2023-10-19T02:08:51;12.63;;;6.30;;
68800;SDS011;55784;50.734;7.086;2023-10-19T02:11:50;14.13;;;5.80;;
68800;SDS011;55784;50.734;7.086;2023-10-19T02:14:23;14.13;;;6.00;;
68800;SDS011;55784;50.734;7.086;2023-10-19T02:16:54;14.45;;;6.15;;
68800;SDS011;55784;50.734;7.086;2023-10-19T02:19:29;13.25;;;6.22;;
68800;SDS011;55784;50.734;7.086;2023-10-19T02:21:55;14.13;;;6.27;;
68800;SDS011;55784;50.734;7.086;2023-10-19T02:24:22;13.10;;;6.22;;
68800;SDS011;55784;50.734;7.086;2023-10-19T02:26:48;13.03;;;5.97;;
68800;SDS011;55784;50.734;7.086;2023-10-19T02:29:16;12.55;;;6.15;;
68800;SDS011;55784;50.734;7.086;2023-10-19T02:31:43;13.93;;;6.25;;
68800;SDS011;55784;50.734;7.086;2023-10-19T02:34:09;13.70;;;5.90;;
68800;SDS011;55784;50.734;7.086;2023-10-19T02:36:37;11.50;;;5.53;;
68800;SDS011;55784;50.734;7.086;2023-10-19T02:39:04;12.00;;;5.70;;
68800;SDS011;55784;50.734;7.086;2023-10-19T02:41:34;11.90;;;5.30;;
68800;SDS011;55784;50.734;7.086;2023-10-19T02:44:16;13.30;;;5.13;;
68800;SDS011;55784;50.734;7.086;2023-10-19T02:46:44;11.27;;;5.13;;
68800;SDS011;55784;50.734;7.086;2023-10-19T02:49:11;11.40;;;5.32;;
68800;SDS011;55784;50.734;7.086;2023-10-19T02:51:38;12.45;;;5.15;;
68800;SDS011;55784;50.734;7.086;2023-10-19T02:54:05;11.52;;;5.35;;
68800;SDS011;55784;50.734;7.086;2023-10-19T02:56:32;10.57;;;4.90;;
68800;SDS011;55784;50.734;7.086;2023-10-19T02:59:00;10.83;;;5.13;;
68800;SDS011;55784;50.734;7.086;2023-10-19T03:01:29;12.18;;;5.47;;
68800;SDS011;55784;50.734;7.086;2023-10-19T03:03:58;11.80;;;5.35;;
68800;SDS011;55784;50.734;7.086;2023-10-19T03:06:27;11.40;;;5.10;;
68800;SDS011;55784;50.734;7.086;2023-10-19T03:08:57;12.85;;;5.13;;
68800;SDS011;55784;50.734;7.086;2023-10-19T03:11:26;13.53;;;5.43;;
68800;SDS011;55784;50.734;7.086;2023-10-19T03:13:55;10.88;;;4.93;;
68800;SDS011;55784;50.734;7.086;2023-10-19T03:16:22;11.65;;;5.15;;
68800;SDS011;55784;50.734;7.086;2023-10-19T03:18:48;11.25;;;4.88;;
68800;SDS011;55784;50.734;7.086;2023-10-19T03:21:15;12.00;;;5.10;;
68800;SDS011;55784;50.734;7.086;2023-10-19T03:23:41;11.77;;;5.30;;
68800;SDS011;55784;50.734;7.086;2023-10-19T03:26:06;12.23;;;5.38;;
68800;SDS011;55784;50.734;7.086;2023-10-19T03:28:50;11.20;;;5.07;;
68800;SDS011;55784;50.734;7.086;2023-10-19T03:31:20;11.77;;;5.38;;
68800;SDS011;55784;50.734;7.086;2023-10-19T03:33:46;11.93;;;5.38;;
68800;SDS011;55784;50.734;7.086;2023-10-19T03:36:31;12.52;;;5.35;;
68800;SDS011;55784;50.734;7.086;2023-10-19T03:38:57;12.52;;;5.90;;
68800;SDS011;55784;50.734;7.086;2023-10-19T03:41:29;12.80;;;5.57;;
68800;SDS011;55784;50.734;7.086;2023-10-19T03:44:00;13.05;;;5.75;;
68800;SDS011;55784;50.734;7.086;2023-10-19T03:46:26;13.18;;;5.78;;
68800;SDS011;55784;50.734;7.086;2023-10-19T03:48:58;13.53;;;5.93;;
68800;SDS011;55784;50.734;7.086;2023-10-19T03:51:28;13.23;;;5.70;;
68800;SDS011;55784;50.734;7.086;2023-10-19T03:54:04;16.02;;;6.22;;
68800;SDS011;55784;50.734;7.086;2023-10-19T03:56:38;13.65;;;5.90;;
68800;SDS011;55784;50.734;7.086;2023-10-19T03:59:03;13.27;;;6.33;;
68800;SDS011;55784;50.734;7.086;2023-10-19T04:01:29;13.73;;;6.07;;
68800;SDS011;55784;50.734;7.086;2023-10-19T04:03:56;12.70;;;5.90;;
68800;SDS011;55784;50.734;7.086;2023-10-19T04:06:22;13.18;;;5.93;;
68800;SDS011;55784;50.734;7.086;2023-10-19T04:08:48;14.30;;;6.07;;
68800;SDS011;55784;50.734;7.086;2023-10-19T04:11:16;13.77;;;6.32;;
68800;SDS011;55784;50.734;7.086;2023-10-19T04:13:51;13.40;;;6.10;;
68800;SDS011;55784;50.734;7.086;2023-10-19T04:16:18;12.80;;;5.78;;
68800;SDS011;55784;50.734;7.086;2023-10-19T04:18:44;13.13;;;5.80;;
68800;SDS011;55784;50.734;7.086;2023-10-19T04:21:09;13.23;;;5.88;;
68800;SDS011;55784;50.734;7.086;2023-10-19T04:23:35;12.33;;;5.33;;
68800;SDS011;55784;50.734;7.086;2023-10-19T04:26:01;12.18;;;5.70;;
68800;SDS011;55784;50.734;7.086;2023-10-19T04:28:30;11.05;;;5.65;;
68800;SDS011;55784;50.734;7.086;2023-10-19T04:31:03;12.32;;;5.40;;
68800;SDS011;55784;50.734;7.086;2023-10-19T04:33:30;13.07;;;5.60;;
68800;SDS011;55784;50.734;7.086;2023-10-19T04:35:55;12.60;;;5.47;;
68800;SDS011;55784;50.734;7.086;2023-10-19T04:38:22;12.23;;;5.47;;
68800;SDS011;55784;50.734;7.086;2023-10-19T04:40:48;13.65;;;4.95;;
68800;SDS011;55784;50.734;7.086;2023-10-19T04:43:13;11.93;;;4.83;;
68800;SDS011;55784;50.734;7.086;2023-10-19T04:45:39;12.20;;;5.43;;
68800;SDS011;55784;50.734;7.086;2023-10-19T04:48:05;12.77;;;5.43;;
68800;SDS011;55784;50.734;7.086;2023-10-19T04:50:31;12.18;;;5.07;;
68800;SDS011;55784;50.734;7.086;2023-10-19T04:52:56;14.50;;;5.93;;
68800;SDS011;55784;50.734;7.086;2023-10-19T04:55:21;12.20;;;5.90;;
68800;SDS011;55784;50.734;7.086;2023-10-19T04:57:47;12.17;;;5.77;;
68800;SDS011;55784;50.734;7.086;2023-10-19T05:00:13;12.10;;;5.60;;
68800;SDS011;55784;50.734;7.086;2023-10-19T05:02:39;15.07;;;5.85;;
68800;SDS011;55784;50.734;7.086;2023-10-19T05:05:05;12.43;;;5.53;;
68800;SDS011;55784;50.734;7.086;2023-10-19T05:07:30;12.15;;;5.47;;
68800;SDS011;55784;50.734;7.086;2023-10-19T05:09:55;13.33;;;6.47;;
68800;SDS011;55784;50.734;7.086;2023-10-19T05:12:21;13.70;;;6.10;;
68800;SDS011;55784;50.734;7.086;2023-10-19T05:14:46;14.20;;;5.90;;
68800;SDS011;55784;50.734;7.086;2023-10-19T05:17:12;12.33;;;5.40;;
68800;SDS011;55784;50.734;7.086;2023-10-19T05:19:38;13.07;;;5.77;;
68800;SDS011;55784;50.734;7.086;2023-10-19T05:22:07;13.35;;;5.65;;
68800;SDS011;55784;50.734;7.086;2023-10-19T05:24:34;13.55;;;6.35;;
68800;SDS011;55784;50.734;7.086;2023-10-19T05:27:00;13.52;;;6.10;;
68800;SDS011;55784;50.734;7.086;2023-10-19T05:29:26;12.43;;;5.77;;
68800;SDS011;55784;50.734;7.086;2023-10-19T05:31:52;13.43;;;5.63;;
68800;SDS011;55784;50.734;7.086;2023-10-19T05:34:22;14.20;;;6.00;;
68800;SDS011;55784;50.734;7.086;2023-10-19T05:36:48;13.15;;;5.82;;
68800;SDS011;55784;50.734;7.086;2023-10-19T05:39:14;13.47;;;6.53;;
68800;SDS011;55784;50.734;7.086;2023-10-19T05:41:40;14.32;;;6.50;;
68800;SDS011;55784;50.734;7.086;2023-10-19T05:44:06;15.40;;;6.00;;
68800;SDS011;55784;50.734;7.086;2023-10-19T05:46:31;14.47;;;5.57;;
68800;SDS011;55784;50.734;7.086;2023-10-19T05:48:57;14.00;;;6.27;;
68800;SDS011;55784;50.734;7.086;2023-10-19T05:51:22;15.13;;;6.60;;
68800;SDS011;55784;50.734;7.086;2023-10-19T05:53:48;16.33;;;6.53;;
68800;SDS011;55784;50.734;7.086;2023-10-19T05:56:14;16.07;;;6.47;;
68800;SDS011;55784;50.734;7.086;2023-10-19T05:58:42;14.77;;;6.43;;
68800;SDS011;55784;50.734;7.086;2023-10-19T06:01:08;16.60;;;6.63;;
68800;SDS011;55784;50.734;7.086;2023-10-19T06:03:33;13.63;;;6.60;;
68800;SDS011;55784;50.734;7.086;2023-10-19T06:05:58;14.53;;;6.27;;
68800;SDS011;55784;50.734;7.086;2023-10-19T06:08:24;12.83;;;5.83;;
68800;SDS011;55784;50.734;7.086;2023-10-19T06:10:53;14.27;;;6.80;;
68800;SDS011;55784;50.734;7.086;2023-10-19T06:13:18;13.02;;;6.30;;
68800;SDS011;55784;50.734;7.086;2023-10-19T06:15:44;15.43;;;6.57;;
68800;SDS011;55784;50.734;7.086;2023-10-19T06:18:09;16.37;;;6.70;;
68800;SDS011;55784;50.734;7.086;2023-10-19T06:20:35;15.27;;;6.40;;
68800;SDS011;55784;50.734;7.086;2023-10-19T06:23:09;13.85;;;5.95;;
68800;SDS011;55784;50.734;7.086;2023-10-19T06:25:35;12.80;;;5.78;;
68800;SDS011;55784;50.734;7.086;2023-10-19T06:28:01;12.80;;;5.97;;
68800;SDS011;55784;50.734;7.086;2023-10-19T06:30:26;13.50;;;5.90;;
68800;SDS011;55784;50.734;7.086;2023-10-19T06:32:59;12.38;;;5.80;;
68800;SDS011;55784;50.734;7.086;2023-10-19T06:35:31;13.40;;;5.50;;
68800;SDS011;55784;50.734;7.086;2023-10-19T06:37:58;15.60;;;5.60;;
68800;SDS011;55784;50.734;7.086;2023-10-19T06:40:24;11.93;;;5.10;;
68800;SDS011;55784;50.734;7.086;2023-10-19T06:42:51;10.65;;;5.10;;
68800;SDS011;55784;50.734;7.086;2023-10-19T06:45:20;12.82;;;5.18;;
68800;SDS011;55784;50.734;7.086;2023-10-19T06:47:46;11.10;;;5.27;;
68800;SDS011;55784;50.734;7.086;2023-10-19T06:50:14;13.13;;;5.30;;
68800;SDS011;55784;50.734;7.086;2023-10-19T06:52:41;11.48;;;5.20;;
68800;SDS011;55784;50.734;7.086;2023-10-19T06:58:29;12.27;;;5.53;;
68800;SDS011;55784;50.734;7.086;2023-10-19T07:00:54;11.43;;;4.67;;
68800;SDS011;55784;50.734;7.086;2023-10-19T07:03:24;11.75;;;5.05;;
68800;SDS011;55784;50.734;7.086;2023-10-19T07:05:53;11.50;;;5.15;;
68800;SDS011;55784;50.734;7.086;2023-10-19T07:08:19;11.32;;;5.63;;
68800;SDS011;55784;50.734;7.086;2023-10-19T07:10:46;13.15;;;5.35;;
68800;SDS011;55784;50.734;7.086;2023-10-19T07:13:11;11.10;;;4.90;;
68800;SDS011;55784;50.734;7.086;2023-10-19T07:15:37;11.03;;;4.63;;
68800;SDS011;55784;50.734;7.086;2023-10-19T07:18:02;9.77;;;4.47;;
68800;SDS011;55784;50.734;7.086;2023-10-19T07:20:27;10.23;;;4.50;;
68800;SDS011;55784;50.734;7.086;2023-10-19T07:23:01;11.85;;;4.55;;
68800;SDS011;55784;50.734;7.086;2023-10-19T07:25:44;14.32;;;4.22;;
68800;SDS011;55784;50.734;7.086;2023-10-19T07:28:12;11.88;;;4.72;;
68800;SDS011;55784;50.734;7.086;2023-10-19T07:30:39;11.02;;;4.50;;
68800;SDS011;55784;50.734;7.086;2023-10-19T07:33:06;11.40;;;4.47;;
68800;SDS011;55784;50.734;7.086;2023-10-19T07:35:35;14.82;;;4.43;;
68800;SDS011;55784;50.734;7.086;2023-10-19T07:38:02;10.87;;;4.10;;
68800;SDS011;55784;50.734;7.086;2023-10-19T07:40:29;8.00;;;3.50;;
68800;SDS011;55784;50.734;7.086;2023-10-19T07:42:54;10.23;;;4.10;;
68800;SDS011;55784;50.734;7.086;2023-10-19T07:45:20;10.43;;;3.77;;
68800;SDS011;55784;50.734;7.086;2023-10-19T07:47:46;9.73;;;3.63;;
68800;SDS011;55784;50.734;7.086;2023-10-19T07:50:12;8.70;;;3.67;;
68800;SDS011;55784;50.734;7.086;2023-10-19T07:52:41;8.98;;;3.20;;
68800;SDS011;55784;50.734;7.086;2023-10-19T07:55:09;10.82;;;4.35;;
68800;SDS011;55784;50.734;7.086;2023-10-19T07:57:34;10.18;;;3.70;;
68800;SDS011;55784;50.734;7.086;2023-10-19T08:00:00;10.67;;;3.70;;
68800;SDS011;55784;50.734;7.086;2023-10-19T08:02:25;12.17;;;4.00;;
68800;SDS011;55784;50.734;7.086;2023-10-19T08:04:51;9.33;;;3.90;;
68800;SDS011;55784;50.734;7.086;2023-10-19T08:07:17;10.48;;;3.60;;
68800;SDS011;55784;50.734;7.086;2023-10-19T08:09:43;12.05;;;4.75;;
68800;SDS011;55784;50.734;7.086;2023-10-19T08:12:09;9.03;;;3.77;;
68800;SDS011;55784;50.734;7.086;2023-10-19T08:14:35;10.68;;;3.70;;
68800;SDS011;55784;50.734;7.086;2023-10-19T08:17:01;13.23;;;4.23;;
68800;SDS011;55784;50.734;7.086;2023-10-19T08:19:28;11.02;;;3.92;;
68800;SDS011;55784;50.734;7.086;2023-10-19T08:21:56;10.98;;;3.65;;
68800;SDS011;55784;50.734;7.086;2023-10-19T08:24:22;8.50;;;3.33;;
68800;SDS011;55784;50.734;7.086;2023-10-19T08:26:48;9.63;;;3.40;;
68800;SDS011;55784;50.734;7.086;2023-10-19T08:29:14;9.68;;;3.60;;
68800;SDS011;55784;50.734;7.086;2023-10-19T08:31:42;9.57;;;3.83;;
68800;SDS011;55784;50.734;7.086;2023-10-19T08:34:09;8.95;;;3.53;;
68800;SDS011;55784;50.734;7.086;2023-10-19T08:36:36;9.50;;;3.45;;
68800;SDS011;55784;50.734;7.086;2023-10-19T08:39:03;8.60;;;3.50;;
68800;SDS011;55784;50.734;7.086;2023-10-19T08:41:36;13.15;;;3.78;;
68800;SDS011;55784;50.734;7.086;2023-10-19T08:44:03;9.00;;;3.53;;
68800;SDS011;55784;50.734;7.086;2023-10-19T08:46:35;12.43;;;3.80;;
68800;SDS011;55784;50.734;7.086;2023-10-19T08:49:03;9.85;;;3.25;;
68800;SDS011;55784;50.734;7.086;2023-10-19T08:51:28;13.17;;;4.90;;
68800;SDS011;55784;50.734;7.086;2023-10-19T08:53:54;10.30;;;3.70;;
68800;SDS011;55784;50.734;7.086;2023-10-19T08:56:19;9.30;;;3.75;;
68800;SDS011;55784;50.734;7.086;2023-10-19T08:58:48;9.83;;;3.33;;
68800;SDS011;55784;50.734;7.086;2023-10-19T09:01:17;9.25;;;3.80;;
68800;SDS011;55784;50.734;7.086;2023-10-19T09:03:44;9.93;;;3.70;;
68800;SDS011;55784;50.734;7.086;2023-10-19T09:06:11;8.27;;;3.30;;
68800;SDS011;55784;50.734;7.086;2023-10-19T09:08:37;44.95;;;5.88;;
68800;SDS011;55784;50.734;7.086;2023-10-19T09:11:09;27.90;;;5.00;;
68800;SDS011;55784;50.734;7.086;2023-10-19T09:13:44;15.25;;;4.15;;
68800;SDS011;55784;50.734;7.086;2023-10-19T09:16:24;13.45;;;3.95;;
68800;SDS011;55784;50.734;7.086;2023-10-19T09:18:50;11.70;;;3.75;;
68800;SDS011;55784;50.734;7.086;2023-10-19T09:21:19;10.93;;;3.15;;
68800;SDS011;55784;50.734;7.086;2023-10-19T09:23:51;11.53;;;2.97;;
68800;SDS011;55784;50.734;7.086;2023-10-19T09:26:18;11.15;;;2.80;;
68800;SDS011;55784;50.734;7.086;2023-10-19T09:28:46;9.40;;;2.60;;
68800;SDS011;55784;50.734;7.086;2023-10-19T09:31:14;8.10;;;2.75;;
68800;SDS011;55784;50.734;7.086;2023-10-19T09:33:41;8.63;;;2.15;;
68800;SDS011;55784;50.734;7.086;2023-10-19T09:36:09;11.33;;;2.50;;
68800;SDS011;55784;50.734;7.086;2023-10-19T09:38:39;8.18;;;2.00;;
68800;SDS011;55784;50.734;7.086;2023-10-19T09:41:08;8.27;;;2.47;;
68800;SDS011;55784;50.734;7.086;2023-10-19T09:43:37;9.63;;;3.17;;
68800;SDS011;55784;50.734;7.086;2023-10-19T09:46:06;8.57;;;2.83;;
68800;SDS011;55784;50.734;7.086;2023-10-19T09:48:39;8.93;;;2.40;;
68800;SDS011;55784;50.734;7.086;2023-10-19T09:51:07;10.93;;;3.10;;
68800;SDS011;55784;50.734;7.086;2023-10-19T09:53:34;7.65;;;2.40;;
68800;SDS011;55784;50.734;7.086;2023-10-19T09:56:00;7.75;;;2.22;;
68800;SDS011;55784;50.734;7.086;2023-10-19T09:58:31;8.30;;;2.70;;
68800;SDS011;55784;50.734;7.086;2023-10-19T10:01:02;8.10;;;3.00;;
68800;SDS011;55784;50.734;7.086;2023-10-19T10:06:17;9.17;;;2.50;;
68800;SDS011;55784;50.734;7.086;2023-10-19T10:08:52;12.88;;;5.35;;
68800;SDS011;55784;50.734;7.086;2023-10-19T10:13:51;8.43;;;3.73;;
68800;SDS011;55784;50.734;7.086;2023-10-19T10:16:18;9.85;;;2.10;;
68800;SDS011;55784;50.734;7.086;2023-10-19T10:18:45;9.23;;;1.90;;
68800;SDS011;55784;50.734;7.086;2023-10-19T10:23:49;8.32;;;2.15;;
68800;SDS011;55784;50.734;7.086;2023-10-19T10:26:17;11.40;;;2.80;;
68800;SDS011;55784;50.734;7.086;2023-10-19T10:28:48;7.85;;;2.00;;
68800;SDS011;55784;50.734;7.086;2023-10-19T10:31:15;9.20;;;2.70;;
68800;SDS011;55784;50.734;7.086;2023-10-19T10:36:19;6.85;;;2.20;;
68800;SDS011;55784;50.734;7.086;2023-10-19T10:38:46;8.73;;;2.00;;
68800;SDS011;55784;50.734;7.086;2023-10-19T10:41:23;7.65;;;2.50;;
68800;SDS011;55784;50.734;7.086;2023-10-19T10:43:58;9.48;;;2.65;;
68800;SDS011;55784;50.734;7.086;2023-10-19T10:46:26;6.27;;;1.20;;
68800;SDS011;55784;50.734;7.086;2023-10-19T10:48:53;6.45;;;1.45;;
68800;SDS011;55784;50.734;7.086;2023-10-19T10:51:23;8.80;;;2.13;;
68800;SDS011;55784;50.734;7.086;2023-10-19T10:53:54;9.70;;;2.83;;
68800;SDS011;55784;50.734;7.086;2023-10-19T10:56:20;14.73;;;4.70;;
68800;SDS011;55784;50.734;7.086;2023-10-19T10:58:46;12.32;;;3.70;;
68800;SDS011;55784;50.734;7.086;2023-10-19T11:01:12;9.27;;;3.30;;
68800;SDS011;55784;50.734;7.086;2023-10-19T11:03:41;15.90;;;4.33;;
68800;SDS011;55784;50.734;7.086;2023-10-19T11:06:09;11.75;;;3.10;;
68800;SDS011;55784;50.734;7.086;2023-10-19T11:08:35;11.57;;;2.55;;
68800;SDS011;55784;50.734;7.086;2023-10-19T11:11:09;8.53;;;2.37;;
68800;SDS011;55784;50.734;7.086;2023-10-19T11:13:37;9.88;;;2.80;;
68800;SDS011;55784;50.734;7.086;2023-10-19T11:16:06;13.63;;;2.60;;
68800;SDS011;55784;50.734;7.086;2023-10-19T11:18:36;6.65;;;2.63;;
68800;SDS011;55784;50.734;7.086;2023-10-19T11:21:02;12.05;;;2.60;;
68800;SDS011;55784;50.734;7.086;2023-10-19T11:26:08;6.22;;;1.70;;
68800;SDS011;55784;50.734;7.086;2023-10-19T11:28:35;12.43;;;4.18;;
68800;SDS011;55784;50.734;7.086;2023-10-19T11:31:14;9.63;;;3.33;;
68800;SDS011;55784;50.734;7.086;2023-10-19T11:33:44;12.48;;;3.72;;
68800;SDS011;55784;50.734;7.086;2023-10-19T11:36:11;8.67;;;2.63;;
68800;SDS011;55784;50.734;7.086;2023-10-19T11:38:40;11.52;;;3.00;;
68800;SDS011;55784;50.734;7.086;2023-10-19T11:41:06;7.78;;;2.60;;
68800;SDS011;55784;50.734;7.086;2023-10-19T11:43:32;8.77;;;2.67;;
68800;SDS011;55784;50.734;7.086;2023-10-19T11:45:59;10.40;;;3.87;;
68800;SDS011;55784;50.734;7.086;2023-10-19T11:48:25;10.38;;;3.55;;
68800;SDS011;55784;50.734;7.086;2023-10-19T11:50:50;8.70;;;3.00;;
68800;SDS011;55784;50.734;7.086;2023-10-19T11:53:16;7.60;;;2.85;;
68800;SDS011;55784;50.734;7.086;2023-10-19T11:55:42;8.73;;;2.83;;
68800;SDS011;55784;50.734;7.086;2023-10-19T11:58:07;9.60;;;2.90;;
68800;SDS011;55784;50.734;7.086;2023-10-19T12:00:39;9.65;;;2.70;;
68800;SDS011;55784;50.734;7.086;2023-10-19T12:03:04;10.95;;;3.00;;
68800;SDS011;55784;50.734;7.086;2023-10-19T12:05:31;10.45;;;2.80;;
68800;SDS011;55784;50.734;7.086;2023-10-19T12:07:56;10.50;;;2.80;;
68800;SDS011;55784;50.734;7.086;2023-10-19T12:10:22;10.40;;;3.00;;
68800;SDS011;55784;50.734;7.086;2023-10-19T12:12:57;7.72;;;2.40;;
68800;SDS011;55784;50.734;7.086;2023-10-19T12:15:22;8.07;;;2.87;;
68800;SDS011;55784;50.734;7.086;2023-10-19T12:17:48;9.87;;;3.90;;
68800;SDS011;55784;50.734;7.086;2023-10-19T12:20:15;9.73;;;4.00;;
68800;SDS011;55784;50.734;7.086;2023-10-19T12:22:41;9.53;;;3.00;;
68800;SDS011;55784;50.734;7.086;2023-10-19T12:25:07;10.98;;;3.40;;
68800;SDS011;55784;50.734;7.086;2023-10-19T12:27:33;11.60;;;2.67;;
68800;SDS011;55784;50.734;7.086;2023-10-19T12:29:58;7.83;;;2.33;;
68800;SDS011;55784;50.734;7.086;2023-10-19T12:32:27;9.07;;;2.40;;
68800;SDS011;55784;50.734;7.086;2023-10-19T12:34:52;9.90;;;3.70;;
68800;SDS011;55784;50.734;7.086;2023-10-19T12:37:23;14.07;;;4.30;;
68800;SDS011;55784;50.734;7.086;2023-10-19T12:39:49;9.43;;;3.13;;
68800;SDS011;55784;50.734;7.086;2023-10-19T12:42:15;9.13;;;2.53;;
68800;SDS011;55784;50.734;7.086;2023-10-19T12:44:40;8.87;;;2.70;;
68800;SDS011;55784;50.734;7.086;2023-10-19T12:47:07;8.30;;;2.30;;
68800;SDS011;55784;50.734;7.086;2023-10-19T12:49:41;8.27;;;2.28;;
68800;SDS011;55784;50.734;7.086;2023-10-19T12:52:14;8.20;;;2.10;;
68800;SDS011;55784;50.734;7.086;2023-10-19T12:54:40;9.03;;;2.30;;
68800;SDS011;55784;50.734;7.086;2023-10-19T12:57:08;6.85;;;2.08;;
68800;SDS011;55784;50.734;7.086;2023-10-19T12:59:35;6.53;;;1.88;;
68800;SDS011;55784;50.734;7.086;2023-10-19T13:02:04;9.23;;;2.60;;
68800;SDS011;55784;50.734;7.086;2023-10-19T13:04:39;11.67;;;2.50;;
68800;SDS011;55784;50.734;7.086;2023-10-19T13:07:11;10.35;;;2.13;;
68800;SDS011;55784;50.734;7.086;2023-10-19T13:09:43;13.07;;;3.05;;
68800;SDS011;55784;50.734;7.086;2023-10-19T13:12:54;10.38;;;2.83;;
68800;SDS011;55784;50.734;7.086;2023-10-19T13:15:20;10.45;;;2.75;;
68800;SDS011;55784;50.734;7.086;2023-10-19T13:17:57;10.93;;;2.90;;
68800;SDS011;55784;50.734;7.086;2023-10-19T13:20:25;8.52;;;2.20;;
68800;SDS011;55784;50.734;7.086;2023-10-19T13:22:51;14.77;;;6.38;;
68800;SDS011;55784;50.734;7.086;2023-10-19T13:25:21;11.15;;;3.40;;
68800;SDS011;55784;50.734;7.086;2023-10-19T13:28:04;10.18;;;2.90;;
68800;SDS011;55784;50.734;7.086;2023-10-19T13:30:36;18.17;;;7.27;;
68800;SDS011;55784;50.734;7.086;2023-10-19T13:33:07;9.65;;;3.70;;
68800;SDS011;55784;50.734;7.086;2023-10-19T13:35:37;13.95;;;4.00;;
68800;SDS011;55784;50.734;7.086;2023-10-19T13:38:04;9.77;;;3.15;;
68800;SDS011;55784;50.734;7.086;2023-10-19T13:40:31;8.07;;;2.40;;
68800;SDS011;55784;50.734;7.086;2023-10-19T13:42:57;11.00;;;3.23;;
68800;SDS011;55784;50.734;7.086;2023-10-19T13:45:23;11.43;;;2.65;;
68800;SDS011;55784;50.734;7.086;2023-10-19T13:47:48;10.85;;;3.20;;
68800;SDS011;55784;50.734;7.086;2023-10-19T13:50:14;11.67;;;3.70;;
68800;SDS011;55784;50.734;7.086;2023-10-19T13:52:39;8.90;;;2.67;;
68800;SDS011;55784;50.734;7.086;2023-10-19T13:55:05;9.70;;;3.23;;
68800;SDS011;55784;50.734;7.086;2023-10-19T13:57:32;10.82;;;3.58;;
68800;SDS011;55784;50.734;7.086;2023-10-19T13:59:58;9.37;;;3.50;;
68800;SDS011;55784;50.734;7.086;2023-10-19T14:02:23;10.23;;;3.30;;
68800;SDS011;55784;50.734;7.086;2023-10-19T14:04:50;10.98;;;3.22;;
68800;SDS011;55784;50.734;7.086;2023-10-19T14:07:16;11.93;;;3.60;;
68800;SDS011;55784;50.734;7.086;2023-10-19T14:09:42;10.70;;;2.90;;
68800;SDS011;55784;50.734;7.086;2023-10-19T14:12:07;8.80;;;2.90;;
68800;SDS011;55784;50.734;7.086;2023-10-19T14:14:34;11.00;;;4.13;;
68800;SDS011;55784;50.734;7.086;2023-10-19T14:17:00;10.80;;;4.40;;
68800;SDS011;55784;50.734;7.086;2023-10-19T14:19:25;14.63;;;6.28;;
68800;SDS011;55784;50.734;7.086;2023-10-19T14:21:51;18.40;;;6.77;;
68800;SDS011;55784;50.734;7.086;2023-10-19T14:24:17;12.18;;;4.70;;
68800;SDS011;55784;50.734;7.086;2023-10-19T14:26:44;11.60;;;3.90;;
68800;SDS011;55784;50.734;7.086;2023-10-19T14:29:11;13.13;;;5.35;;
68800;SDS011;55784;50.734;7.086;2023-10-19T14:31:39;13.87;;;5.00;;
68800;SDS011;55784;50.734;7.086;2023-10-19T14:34:08;14.68;;;4.57;;
68800;SDS011;55784;50.734;7.086;2023-10-19T14:36:34;13.38;;;4.80;;
68800;SDS011;55784;50.734;7.086;2023-10-19T14:39:00;11.73;;;4.03;;
68800;SDS011;55784;50.734;7.086;2023-10-19T14:41:30;9.30;;;4.22;;
68800;SDS011;55784;50.734;7.086;2023-10-19T14:43:56;9.20;;;3.37;;
68800;SDS011;55784;50.734;7.086;2023-10-19T14:46:35;12.07;;;5.50;;
68800;SDS011;55784;50.734;7.086;2023-10-19T14:49:01;11.65;;;4.57;;
68800;SDS011;55784;50.734;7.086;2023-10-19T14:51:26;13.10;;;4.70;;
68800;SDS011;55784;50.734;7.086;2023-10-19T14:53:52;12.83;;;4.20;;
68800;SDS011;55784;50.734;7.086;2023-10-19T14:56:18;12.15;;;4.72;;
68800;SDS011;55784;50.734;7.086;2023-10-19T14:58:43;13.13;;;4.70;;
68800;SDS011;55784;50.734;7.086;2023-10-19T15:01:08;14.57;;;5.70;;